Batesville, South Carolina
Current Conditions -  °F | °C
As of 12:53 PM on Thursday 27 Nov 2014 (Local Time) from KGMU Reporting Station
Overcast Overcast  
Wind Chill: 52°   Ceiling: 6000
Heat Index: 52°   Visibility: 10mi
Dew Point: 23°   Wind: 13mph
Humidity: 32%   Direction: 330°NNW
Pressure: 30.15"   Gusts: 20mph
Location:  34.8105°N, 82.3328°W
Report Text: KGMU 271753Z 33011G17KT 10SM OVC060 11/M05 A3015 RMK AO2 SLP210 T01111050 10111 20039 50009
Loading
Personal Weather Stations






























Interactive Weather Map New forecast layout! Learn more

10-Day Weather Forecast

Advertisements
Track Severe Weather on mobile